首页
METAR-TAF:

METAR-TAF

机场 :

卡塔尼亞-豐塔納羅沙機場

卡塔尼亞, 意大利

纬度: 37-28N, 经度: 015-03E, 海拔: 11米

当前天气观测

该预报发布于32分钟前的06:50 UTC
风速4节,风向西转西南
温度 5°C
湿度 93%
气压 1029 hPa
能见度10公里或以上
1500米以下无云,无积雨云

METAR: LICC 170650Z 25004KT CAVOK 05/04 Q1029

时间: 08:22 (07:22 UTC)

预报

该预报发布于2小时和22分钟前的05:00 UTC
预报有效从17日的 06点(UTC)到 18日的 06点(UTC)
风速5节,风向多变
能见度10公里或以上
散云层高于4000英尺

TAF: LICC 170500Z 1706/1806 VRB05KT 9999 SCT040

超过4000个机场的气象观测和天气预报(METAR&TAF报告)。

可查询的气象台以黄色和红色小点在地图上表示。

将鼠标移到小点上方,可查看气象台名称。

然后点击查看天气观测和预报。

如需切换地图:点击带黑十字的绿色按钮放大地图;点击带横线的绿色按钮缩小地图;或者点击绿色箭头查看邻近地区的地图。


METAR-TAF: